sensor_id;sensor_type;location;lat;lon;timestamp;temperature;humidity
33428;DHT22;19769;48.150;16.306;2022-10-16T00:18:12;15.10;99.90
33428;DHT22;19769;48.150;16.306;2022-10-16T00:20:40;14.30;99.90
33428;DHT22;19769;48.150;16.306;2022-10-16T00:23:05;14.20;99.90
33428;DHT22;19769;48.150;16.306;2022-10-16T00:25:32;14.20;99.90
33428;DHT22;19769;48.150;16.306;2022-10-16T00:28:01;14.20;99.90
33428;DHT22;19769;48.150;16.306;2022-10-16T00:30:27;14.20;99.90
33428;DHT22;19769;48.150;16.306;2022-10-16T00:32:55;14.10;99.90
33428;DHT22;19769;48.150;16.306;2022-10-16T00:35:20;14.10;99.90
33428;DHT22;19769;48.150;16.306;2022-10-16T00:37:46;14.10;99.90
33428;DHT22;19769;48.150;16.306;2022-10-16T00:40:12;14.00;99.90
33428;DHT22;19769;48.150;16.306;2022-10-16T00:42:38;14.00;99.90
33428;DHT22;19769;48.150;16.306;2022-10-16T00:45:04;14.00;99.90
33428;DHT22;19769;48.150;16.306;2022-10-16T00:47:34;14.00;99.90
33428;DHT22;19769;48.150;16.306;2022-10-16T00:50:11;14.00;99.90
33428;DHT22;19769;48.150;16.306;2022-10-16T00:52:43;13.90;99.90
33428;DHT22;19769;48.150;16.306;2022-10-16T00:55:10;13.90;99.90
33428;DHT22;19769;48.150;16.306;2022-10-16T00:57:36;13.90;99.90
33428;DHT22;19769;48.150;16.306;2022-10-16T01:00:06;13.90;99.90
33428;DHT22;19769;48.150;16.306;2022-10-16T01:02:32;13.90;99.90
33428;DHT22;19769;48.150;16.306;2022-10-16T01:04:58;13.90;99.90
33428;DHT22;19769;48.150;16.306;2022-10-16T01:07:41;13.90;99.90
33428;DHT22;19769;48.150;16.306;2022-10-16T01:10:31;13.90;99.90
33428;DHT22;19769;48.150;16.306;2022-10-16T01:13:33;13.90;99.90
33428;DHT22;19769;48.150;16.306;2022-10-16T01:16:24;14.00;99.90
33428;DHT22;19769;48.150;16.306;2022-10-16T01:19:01;13.90;99.90
33428;DHT22;19769;48.150;16.306;2022-10-16T01:21:36;13.90;99.90
33428;DHT22;19769;48.150;16.306;2022-10-16T01:24:54;13.90;99.90
33428;DHT22;19769;48.150;16.306;2022-10-16T01:27:30;13.80;99.90
33428;DHT22;19769;48.150;16.306;2022-10-16T01:29:57;13.90;99.90
33428;DHT22;19769;48.150;16.306;2022-10-16T01:32:32;13.90;99.90
33428;DHT22;19769;48.150;16.306;2022-10-16T01:38:10;13.80;99.90
33428;DHT22;19769;48.150;16.306;2022-10-16T01:40:39;13.80;99.90
33428;DHT22;19769;48.150;16.306;2022-10-16T01:43:24;13.80;99.90
33428;DHT22;19769;48.150;16.306;2022-10-16T01:45:52;13.70;99.90
33428;DHT22;19769;48.150;16.306;2022-10-16T01:48:19;13.70;99.90
33428;DHT22;19769;48.150;16.306;2022-10-16T01:50:57;13.70;99.90
33428;DHT22;19769;48.150;16.306;2022-10-16T11:56:28;18.60;99.90
33428;DHT22;19769;48.150;16.306;2022-10-16T12:04:25;20.00;99.90
33428;DHT22;19769;48.150;16.306;2022-10-16T12:19:21;30.10;69.90
33428;DHT22;19769;48.150;16.306;2022-10-16T12:21:46;33.50;53.50
33428;DHT22;19769;48.150;16.306;2022-10-16T13:28:02;34.00;50.90
33428;DHT22;19769;48.150;16.306;2022-10-16T13:30:30;38.40;39.70
33428;DHT22;19769;48.150;16.306;2022-10-16T14:40:59;37.30;39.80
33428;DHT22;19769;48.150;16.306;2022-10-16T14:43:37;24.70;65.00
33428;DHT22;19769;48.150;16.306;2022-10-16T14:46:13;23.50;68.50
33428;DHT22;19769;48.150;16.306;2022-10-16T14:48:44;22.80;76.70
33428;DHT22;19769;48.150;16.306;2022-10-16T14:51:16;22.40;88.20
33428;DHT22;19769;48.150;16.306;2022-10-16T14:53:42;22.00;93.70
33428;DHT22;19769;48.150;16.306;2022-10-16T14:56:29;21.80;97.90
33428;DHT22;19769;48.150;16.306;2022-10-16T14:58:56;21.50;99.90
33428;DHT22;19769;48.150;16.306;2022-10-16T15:01:22;21.30;99.90
33428;DHT22;19769;48.150;16.306;2022-10-16T15:03:48;21.10;99.90
33428;DHT22;19769;48.150;16.306;2022-10-16T15:06:15;21.10;99.90
33428;DHT22;19769;48.150;16.306;2022-10-16T15:08:41;20.90;99.90
33428;DHT22;19769;48.150;16.306;2022-10-16T15:11:13;20.80;99.90
33428;DHT22;19769;48.150;16.306;2022-10-16T15:13:39;20.70;99.90
33428;DHT22;19769;48.150;16.306;2022-10-16T15:18:31;20.60;99.90
33428;DHT22;19769;48.150;16.306;2022-10-16T15:20:57;21.50;99.90
33428;DHT22;19769;48.150;16.306;2022-10-16T15:23:22;21.40;99.90
33428;DHT22;19769;48.150;16.306;2022-10-16T21:29:41;21.10;99.90
33428;DHT22;19769;48.150;16.306;2022-10-16T21:32:07;14.50;99.90
33428;DHT22;19769;48.150;16.306;2022-10-16T21:34:33;14.10;99.90
33428;DHT22;19769;48.150;16.306;2022-10-16T21:54:09;14.00;99.90
33428;DHT22;19769;48.150;16.306;2022-10-16T21:56:35;13.90;99.90
33428;DHT22;19769;48.150;16.306;2022-10-16T21:59:01;13.90;99.90
33428;DHT22;19769;48.150;16.306;2022-10-16T22:01:27;13.90;99.90
